Sunny Gloria — 3FDL8 — position and weather

sailwx.info

Track history (hours):
 
Tides and Currents Weather Stations Pressure Air Temp Water Temp Dewpoint Dewpoint Depression Visibility Wind Speed Wind Dir Waves Ship Positions

Sunny Gloria

Last reported at 2017-Oct-14 11:36 UTC. Time now 2017-Dec-12 04:44 UTC.
Position N 37°21' E 025°55'.
Warning: this ship's position is 58 days out of date.

Length 186 m; draft 11.2 m.

Type: Cargo ship. MMSI: 351991000.

Date/timePositionNaut miles runAvg speedWind from/ knotsBaromVisibWave heightAir tempDewpointWater temp
2017-Oct-14 11:36N 37°21' E 025°55'112.4
2017-Oct-14 11:31N 37°22' E 025°54'612.4
2017-Oct-14 11:01N 37°28' E 025°50'612.0
2017-Oct-14 10:31N 37°34' E 025°48'712.0
2017-Oct-14 09:56N 37°40' E 025°47'611.9
2017-Oct-14 09:29N 37°46' E 025°47'12812.1
2017-Oct-13 22:50N 39°54' E 025°49'412.9
2017-Oct-13 22:29N 39°57' E 025°54'169 3.5
2017-Oct-11 22:25N 41°60' E 028°29'612.8
2017-Oct-11 21:58N 42°04' E 028°25'  
Track history (hours):
 
Tides and Currents Weather Stations Pressure Air Temp Water Temp Dewpoint Dewpoint Depression Visibility Wind Speed Wind Dir Waves Ship Positions

Sunny Gloria

Last reported at 2017-Oct-14 11:36 UTC. Time now 2017-Dec-12 04:44 UTC.
Position N 37°21' E 025°55'.
Warning: this ship's position is 58 days out of date.

Length 186 m; draft 11.2 m.

Type: Cargo ship. MMSI: 351991000.

Date/timePositionNaut miles runAvg speedWind from/ knotsBaromVisibWave heightAir tempDewpointWater temp
2017-Oct-14 11:36N 37°21' E 025°55'112.4
2017-Oct-14 11:31N 37°22' E 025°54'612.4
2017-Oct-14 11:01N 37°28' E 025°50'612.0
2017-Oct-14 10:31N 37°34' E 025°48'712.0
2017-Oct-14 09:56N 37°40' E 025°47'611.9
2017-Oct-14 09:29N 37°46' E 025°47'12812.1
2017-Oct-13 22:50N 39°54' E 025°49'412.9
2017-Oct-13 22:29N 39°57' E 025°54'169 3.5
2017-Oct-11 22:25N 41°60' E 028°29'612.8
2017-Oct-11 21:58N 42°04' E 028°25'  

Dump ship's entire track history